sensor_id;sensor_type;location;lat;lon;timestamp;pressure;altitude;pressure_sealevel;temperature;humidity
54417;BME280;40326;51.220;7.250;2022-08-01T00:00:11;98536.38;;;18.65;100.00
54417;BME280;40326;51.220;7.250;2022-08-01T00:02:37;98536.97;;;18.57;100.00
54417;BME280;40326;51.220;7.250;2022-08-01T00:05:07;98537.31;;;18.64;100.00
54417;BME280;40326;51.220;7.250;2022-08-01T00:07:33;98540.03;;;18.62;100.00
54417;BME280;40326;51.220;7.250;2022-08-01T00:09:59;98538.50;;;18.60;100.00
54417;BME280;40326;51.220;7.250;2022-08-01T00:12:24;98531.91;;;18.67;100.00
54417;BME280;40326;51.220;7.250;2022-08-01T00:14:49;98543.69;;;18.71;100.00
54417;BME280;40326;51.220;7.250;2022-08-01T00:17:15;98530.47;;;18.63;100.00
54417;BME280;40326;51.220;7.250;2022-08-01T00:19:40;98528.34;;;18.68;100.00
54417;BME280;40326;51.220;7.250;2022-08-01T00:22:06;98535.66;;;18.63;100.00
54417;BME280;40326;51.220;7.250;2022-08-01T00:24:31;98533.81;;;18.65;100.00
54417;BME280;40326;51.220;7.250;2022-08-01T00:26:56;98533.50;;;18.36;100.00
54417;BME280;40326;51.220;7.250;2022-08-01T00:29:22;98525.00;;;18.45;100.00
54417;BME280;40326;51.220;7.250;2022-08-01T00:31:47;98530.34;;;18.64;100.00
54417;BME280;40326;51.220;7.250;2022-08-01T00:34:12;98530.75;;;18.49;100.00
54417;BME280;40326;51.220;7.250;2022-08-01T00:36:38;98536.53;;;18.52;100.00
54417;BME280;40326;51.220;7.250;2022-08-01T00:39:03;98532.53;;;18.48;100.00
54417;BME280;40326;51.220;7.250;2022-08-01T00:41:29;98524.81;;;18.58;100.00
54417;BME280;40326;51.220;7.250;2022-08-01T00:43:54;98527.28;;;18.59;100.00
54417;BME280;40326;51.220;7.250;2022-08-01T00:46:19;98523.06;;;18.58;100.00
54417;BME280;40326;51.220;7.250;2022-08-01T00:48:45;98524.00;;;18.57;100.00
54417;BME280;40326;51.220;7.250;2022-08-01T00:51:11;98528.19;;;18.37;100.00
54417;BME280;40326;51.220;7.250;2022-08-01T00:53:37;98527.13;;;18.51;100.00
54417;BME280;40326;51.220;7.250;2022-08-01T00:56:04;98527.13;;;18.40;100.00
54417;BME280;40326;51.220;7.250;2022-08-01T00:58:29;98526.34;;;18.28;100.00
54417;BME280;40326;51.220;7.250;2022-08-01T01:00:57;98527.25;;;18.38;100.00
54417;BME280;40326;51.220;7.250;2022-08-01T01:03:26;98528.53;;;18.44;100.00
54417;BME280;40326;51.220;7.250;2022-08-01T01:11:53;98529.25;;;18.46;100.00
54417;BME280;40326;51.220;7.250;2022-08-01T01:14:56;98520.16;;;18.40;100.00
54417;BME280;40326;51.220;7.250;2022-08-01T01:17:39;98526.19;;;18.41;100.00
54417;BME280;40326;51.220;7.250;2022-08-01T01:20:08;98533.56;;;18.57;100.00
54417;BME280;40326;51.220;7.250;2022-08-01T01:22:53;98526.25;;;18.51;100.00
54417;BME280;40326;51.220;7.250;2022-08-01T01:25:50;98541.28;;;18.36;100.00
54417;BME280;40326;51.220;7.250;2022-08-01T01:28:27;98524.88;;;18.47;100.00
54417;BME280;40326;51.220;7.250;2022-08-01T01:30:56;98532.88;;;18.55;100.00
54417;BME280;40326;51.220;7.250;2022-08-01T01:33:23;98539.22;;;18.51;100.00
54417;BME280;40326;51.220;7.250;2022-08-01T01:35:53;98524.22;;;18.33;100.00
54417;BME280;40326;51.220;7.250;2022-08-01T01:38:28;98534.25;;;18.59;100.00
54417;BME280;40326;51.220;7.250;2022-08-01T01:40:55;98531.91;;;18.56;100.00
54417;BME280;40326;51.220;7.250;2022-08-01T01:43:23;98528.53;;;18.44;100.00
54417;BME280;40326;51.220;7.250;2022-08-01T01:45:49;98532.88;;;18.55;100.00
54417;BME280;40326;51.220;7.250;2022-08-01T01:48:18;98525.94;;;18.44;100.00
54417;BME280;40326;51.220;7.250;2022-08-01T01:50:45;98535.38;;;18.45;100.00
54417;BME280;40326;51.220;7.250;2022-08-01T01:53:13;98538.50;;;18.60;100.00
54417;BME280;40326;51.220;7.250;2022-08-01T01:55:42;98529.19;;;18.68;100.00
54417;BME280;40326;51.220;7.250;2022-08-01T01:58:12;98528.63;;;18.54;100.00
54417;BME280;40326;51.220;7.250;2022-08-01T02:00:39;98528.84;;;18.62;100.00
54417;BME280;40326;51.220;7.250;2022-08-01T02:03:07;98532.19;;;18.41;100.00
54417;BME280;40326;51.220;7.250;2022-08-01T02:05:33;98536.16;;;18.57;100.00
54417;BME280;40326;51.220;7.250;2022-08-01T02:08:01;98531.91;;;18.56;100.00
54417;BME280;40326;51.220;7.250;2022-08-01T02:10:28;98532.69;;;18.35;100.00
54417;BME280;40326;51.220;7.250;2022-08-01T02:12:56;98542.72;;;18.29;100.00
54417;BME280;40326;51.220;7.250;2022-08-01T02:15:22;98548.25;;;18.35;100.00
54417;BME280;40326;51.220;7.250;2022-08-01T02:17:50;98546.25;;;18.28;100.00
54417;BME280;40326;51.220;7.250;2022-08-01T02:20:16;98541.81;;;18.51;100.00
54417;BME280;40326;51.220;7.250;2022-08-01T02:22:46;98531.09;;;18.55;100.00
54417;BME280;40326;51.220;7.250;2022-08-01T02:25:29;98526.59;;;18.25;100.00
54417;BME280;40326;51.220;7.250;2022-08-01T02:28:06;98531.06;;;18.34;100.00
54417;BME280;40326;51.220;7.250;2022-08-01T02:30:35;98539.44;;;18.27;100.00
54417;BME280;40326;51.220;7.250;2022-08-01T02:35:42;98535.25;;;18.47;100.00
54417;BME280;40326;51.220;7.250;2022-08-01T02:38:12;98537.66;;;18.27;100.00
54417;BME280;40326;51.220;7.250;2022-08-01T02:40:41;98539.78;;;18.33;100.00
54417;BME280;40326;51.220;7.250;2022-08-01T02:43:09;98539.06;;;18.20;100.00
54417;BME280;40326;51.220;7.250;2022-08-01T02:45:39;98547.31;;;18.25;100.00
54417;BME280;40326;51.220;7.250;2022-08-01T02:48:12;98540.47;;;18.35;100.00
54417;BME280;40326;51.220;7.250;2022-08-01T02:50:42;98535.81;;;18.07;100.00
54417;BME280;40326;51.220;7.250;2022-08-01T02:53:09;98544.38;;;18.19;100.00
54417;BME280;40326;51.220;7.250;2022-08-01T02:55:38;98541.44;;;18.12;100.00
54417;BME280;40326;51.220;7.250;2022-08-01T02:58:06;98539.19;;;18.30;100.00
54417;BME280;40326;51.220;7.250;2022-08-01T03:00:33;98534.25;;;18.27;100.00
54417;BME280;40326;51.220;7.250;2022-08-01T03:02:59;98530.06;;;18.47;100.00
54417;BME280;40326;51.220;7.250;2022-08-01T03:05:27;98530.66;;;18.39;100.00
54417;BME280;40326;51.220;7.250;2022-08-01T03:07:54;98530.78;;;18.37;100.00
54417;BME280;40326;51.220;7.250;2022-08-01T03:10:21;98521.00;;;18.41;100.00
54417;BME280;40326;51.220;7.250;2022-08-01T03:12:48;98523.59;;;18.41;100.00
54417;BME280;40326;51.220;7.250;2022-08-01T03:15:15;98520.38;;;18.49;100.00
54417;BME280;40326;51.220;7.250;2022-08-01T03:17:43;98525.94;;;18.44;100.00
54417;BME280;40326;51.220;7.250;2022-08-01T03:20:11;98524.41;;;18.53;100.00
54417;BME280;40326;51.220;7.250;2022-08-01T03:22:38;98518.25;;;18.65;100.00
54417;BME280;40326;51.220;7.250;2022-08-01T03:25:05;98512.25;;;18.53;100.00
54417;BME280;40326;51.220;7.250;2022-08-01T03:27:32;98527.38;;;18.80;100.00
54417;BME280;40326;51.220;7.250;2022-08-01T03:29:58;98526.00;;;18.97;100.00
54417;BME280;40326;51.220;7.250;2022-08-01T03:32:26;98514.94;;;18.63;100.00
54417;BME280;40326;51.220;7.250;2022-08-01T03:34:52;98524.41;;;18.85;100.00
54417;BME280;40326;51.220;7.250;2022-08-01T03:37:25;98512.84;;;19.10;100.00
54417;BME280;40326;51.220;7.250;2022-08-01T03:40:17;98511.88;;;18.90;100.00
54417;BME280;40326;51.220;7.250;2022-08-01T03:42:48;98505.69;;;19.02;100.00
54417;BME280;40326;51.220;7.250;2022-08-01T03:45:36;98513.59;;;18.80;100.00
54417;BME280;40326;51.220;7.250;2022-08-01T03:48:06;98517.38;;;18.76;100.00
54417;BME280;40326;51.220;7.250;2022-08-01T03:50:34;98528.94;;;18.71;100.00
54417;BME280;40326;51.220;7.250;2022-08-01T03:53:02;98526.94;;;18.64;100.00
54417;BME280;40326;51.220;7.250;2022-08-01T03:55:30;98530.09;;;18.79;100.00
54417;BME280;40326;51.220;7.250;2022-08-01T03:57:57;98527.06;;;18.94;100.00
54417;BME280;40326;51.220;7.250;2022-08-01T04:00:24;98516.25;;;18.89;100.00
54417;BME280;40326;51.220;7.250;2022-08-01T04:02:50;98514.84;;;18.85;100.00
54417;BME280;40326;51.220;7.250;2022-08-01T04:05:16;98516.53;;;18.96;100.00
54417;BME280;40326;51.220;7.250;2022-08-01T04:07:48;98514.47;;;18.26;100.00
54417;BME280;40326;51.220;7.250;2022-08-01T04:10:15;98528.97;;;18.60;100.00
54417;BME280;40326;51.220;7.250;2022-08-01T04:12:41;98526.03;;;18.54;100.00
54417;BME280;40326;51.220;7.250;2022-08-01T04:15:08;98533.59;;;18.46;100.00
54417;BME280;40326;51.220;7.250;2022-08-01T04:17:33;98531.09;;;18.55;100.00
54417;BME280;40326;51.220;7.250;2022-08-01T04:19:58;98530.53;;;18.52;100.00
54417;BME280;40326;51.220;7.250;2022-08-01T04:22:24;98529.78;;;18.61;100.00
54417;BME280;40326;51.220;7.250;2022-08-01T04:24:52;98533.06;;;18.63;100.00
54417;BME280;40326;51.220;7.250;2022-08-01T04:27:24;98545.34;;;18.18;100.00
54417;BME280;40326;51.220;7.250;2022-08-01T04:29:56;98552.81;;;18.32;100.00
54417;BME280;40326;51.220;7.250;2022-08-01T04:32:25;98557.44;;;18.28;100.00
54417;BME280;40326;51.220;7.250;2022-08-01T04:34:53;98558.97;;;18.31;100.00
54417;BME280;40326;51.220;7.250;2022-08-01T04:37:22;98564.63;;;18.36;100.00
54417;BME280;40326;51.220;7.250;2022-08-01T04:39:50;98561.34;;;18.34;100.00
54417;BME280;40326;51.220;7.250;2022-08-01T04:42:17;98561.69;;;18.29;100.00
54417;BME280;40326;51.220;7.250;2022-08-01T04:44:43;98566.25;;;18.37;100.00
54417;BME280;40326;51.220;7.250;2022-08-01T04:47:08;98573.94;;;18.27;100.00
54417;BME280;40326;51.220;7.250;2022-08-01T04:49:34;98566.59;;;18.32;100.00
54417;BME280;40326;51.220;7.250;2022-08-01T04:52:01;98568.72;;;18.38;100.00
54417;BME280;40326;51.220;7.250;2022-08-01T04:54:27;98564.41;;;18.28;100.00
54417;BME280;40326;51.220;7.250;2022-08-01T04:56:53;98565.88;;;18.53;100.00
54417;BME280;40326;51.220;7.250;2022-08-01T04:59:21;98563.63;;;18.48;100.00
54417;BME280;40326;51.220;7.250;2022-08-01T05:02:13;98569.91;;;18.46;100.00
54417;BME280;40326;51.220;7.250;2022-08-01T05:04:39;98561.81;;;18.60;100.00
54417;BME280;40326;51.220;7.250;2022-08-01T05:07:06;98565.41;;;18.91;100.00
54417;BME280;40326;51.220;7.250;2022-08-01T05:09:32;98554.22;;;18.90;100.00
54417;BME280;40326;51.220;7.250;2022-08-01T05:11:59;98544.66;;;18.91;100.00
54417;BME280;40326;51.220;7.250;2022-08-01T05:14:25;98548.47;;;19.28;100.00
54417;BME280;40326;51.220;7.250;2022-08-01T05:16:51;98544.91;;;18.88;100.00
54417;BME280;40326;51.220;7.250;2022-08-01T05:19:17;98542.00;;;19.02;100.00
54417;BME280;40326;51.220;7.250;2022-08-01T05:21:42;98546.69;;;18.87;100.00
54417;BME280;40326;51.220;7.250;2022-08-01T05:24:08;98548.59;;;19.06;100.00
54417;BME280;40326;51.220;7.250;2022-08-01T05:26:33;98541.94;;;18.60;100.00
54417;BME280;40326;51.220;7.250;2022-08-01T05:28:59;98552.16;;;18.73;100.00
54417;BME280;40326;51.220;7.250;2022-08-01T05:31:24;98552.44;;;18.91;100.00
54417;BME280;40326;51.220;7.250;2022-08-01T05:33:50;98550.72;;;18.80;100.00
54417;BME280;40326;51.220;7.250;2022-08-01T05:36:15;98554.66;;;18.95;100.00
54417;BME280;40326;51.220;7.250;2022-08-01T05:38:40;98552.97;;;19.06;100.00
54417;BME280;40326;51.220;7.250;2022-08-01T05:41:06;98558.41;;;19.03;100.00
54417;BME280;40326;51.220;7.250;2022-08-01T05:43:31;98556.81;;;19.11;100.00
54417;BME280;40326;51.220;7.250;2022-08-01T05:45:56;98554.47;;;18.87;100.00
54417;BME280;40326;51.220;7.250;2022-08-01T05:48:23;98558.94;;;18.85;100.00
54417;BME280;40326;51.220;7.250;2022-08-01T05:50:48;98562.78;;;18.70;100.00
54417;BME280;40326;51.220;7.250;2022-08-01T05:53:14;98558.00;;;18.86;100.00
54417;BME280;40326;51.220;7.250;2022-08-01T05:55:40;98555.38;;;18.97;100.00
54417;BME280;40326;51.220;7.250;2022-08-01T05:58:05;98561.44;;;19.08;100.00
54417;BME280;40326;51.220;7.250;2022-08-01T06:00:31;98568.28;;;19.09;100.00
54417;BME280;40326;51.220;7.250;2022-08-01T06:02:56;98569.03;;;18.99;100.00
54417;BME280;40326;51.220;7.250;2022-08-01T06:05:21;98566.88;;;19.05;100.00
54417;BME280;40326;51.220;7.250;2022-08-01T06:07:47;98567.94;;;19.23;100.00
54417;BME280;40326;51.220;7.250;2022-08-01T06:10:12;98559.03;;;19.37;100.00
54417;BME280;40326;51.220;7.250;2022-08-01T06:12:37;98554.41;;;19.19;100.00
54417;BME280;40326;51.220;7.250;2022-08-01T06:15:06;98558.28;;;19.25;100.00
54417;BME280;40326;51.220;7.250;2022-08-01T06:17:32;98555.88;;;19.33;100.00
54417;BME280;40326;51.220;7.250;2022-08-01T06:19:57;98541.81;;;19.56;100.00
54417;BME280;40326;51.220;7.250;2022-08-01T06:22:23;98549.84;;;19.53;100.00
54417;BME280;40326;51.220;7.250;2022-08-01T06:24:48;98536.41;;;20.09;100.00
54417;BME280;40326;51.220;7.250;2022-08-01T06:27:13;98514.97;;;20.36;100.00
54417;BME280;40326;51.220;7.250;2022-08-01T06:29:39;98513.63;;;20.42;100.00
54417;BME280;40326;51.220;7.250;2022-08-01T06:32:04;98511.16;;;19.81;100.00
54417;BME280;40326;51.220;7.250;2022-08-01T06:34:30;98523.97;;;19.42;100.00
54417;BME280;40326;51.220;7.250;2022-08-01T06:36:55;98524.34;;;19.17;100.00
54417;BME280;40326;51.220;7.250;2022-08-01T06:39:20;98526.09;;;19.37;100.00
54417;BME280;40326;51.220;7.250;2022-08-01T06:41:46;98528.06;;;19.45;100.00
54417;BME280;40326;51.220;7.250;2022-08-01T06:44:12;98537.25;;;19.28;100.00
54417;BME280;40326;51.220;7.250;2022-08-01T06:46:38;98530.31;;;19.80;100.00
54417;BME280;40326;51.220;7.250;2022-08-01T06:49:04;98518.19;;;20.59;100.00
54417;BME280;40326;51.220;7.250;2022-08-01T06:51:29;98500.47;;;20.34;100.00
54417;BME280;40326;51.220;7.250;2022-08-01T06:53:55;98518.56;;;20.45;100.00
54417;BME280;40326;51.220;7.250;2022-08-01T06:56:20;98515.69;;;20.48;100.00
54417;BME280;40326;51.220;7.250;2022-08-01T06:58:46;98519.75;;;19.72;100.00
54417;BME280;40326;51.220;7.250;2022-08-01T07:01:12;98519.13;;;20.49;100.00
54417;BME280;40326;51.220;7.250;2022-08-01T07:03:37;98508.81;;;20.37;100.00
54417;BME280;40326;51.220;7.250;2022-08-01T07:06:03;98500.38;;;20.55;100.00
54417;BME280;40326;51.220;7.250;2022-08-01T07:08:29;98503.75;;;20.36;100.00
54417;BME280;40326;51.220;7.250;2022-08-01T07:10:54;98506.69;;;20.52;100.00
54417;BME280;40326;51.220;7.250;2022-08-01T07:13:21;98497.44;;;21.16;100.00
54417;BME280;40326;51.220;7.250;2022-08-01T07:15:50;98487.97;;;21.34;100.00
54417;BME280;40326;51.220;7.250;2022-08-01T07:18:15;98476.25;;;20.91;100.00
54417;BME280;40326;51.220;7.250;2022-08-01T07:20:40;98483.16;;;21.30;100.00
54417;BME280;40326;51.220;7.250;2022-08-01T07:23:06;98491.63;;;21.51;100.00
54417;BME280;40326;51.220;7.250;2022-08-01T07:25:31;98457.31;;;21.56;100.00
54417;BME280;40326;51.220;7.250;2022-08-01T07:27:56;98466.91;;;22.10;100.00
54417;BME280;40326;51.220;7.250;2022-08-01T07:30:22;98470.16;;;21.94;100.00
54417;BME280;40326;51.220;7.250;2022-08-01T07:32:47;98471.28;;;21.54;100.00
54417;BME280;40326;51.220;7.250;2022-08-01T07:35:13;98466.34;;;21.61;100.00
54417;BME280;40326;51.220;7.250;2022-08-01T07:37:38;98457.06;;;22.04;100.00
54417;BME280;40326;51.220;7.250;2022-08-01T07:40:04;98473.72;;;21.29;100.00
54417;BME280;40326;51.220;7.250;2022-08-01T07:42:31;98475.38;;;21.67;100.00
54417;BME280;40326;51.220;7.250;2022-08-01T07:44:56;98471.34;;;21.72;100.00
54417;BME280;40326;51.220;7.250;2022-08-01T07:47:25;98477.53;;;20.68;100.00
54417;BME280;40326;51.220;7.250;2022-08-01T07:49:51;98497.16;;;21.09;100.00
54417;BME280;40326;51.220;7.250;2022-08-01T07:52:16;98494.75;;;20.79;100.00
54417;BME280;40326;51.220;7.250;2022-08-01T07:54:42;98511.34;;;20.87;100.00
54417;BME280;40326;51.220;7.250;2022-08-01T07:57:07;98515.03;;;20.85;100.00
54417;BME280;40326;51.220;7.250;2022-08-01T07:59:33;98520.63;;;20.90;100.00
54417;BME280;40326;51.220;7.250;2022-08-01T08:01:59;98514.34;;;20.83;100.00
54417;BME280;40326;51.220;7.250;2022-08-01T08:04:24;98514.16;;;21.23;100.00
54417;BME280;40326;51.220;7.250;2022-08-01T08:06:50;98510.50;;;20.87;100.00
54417;BME280;40326;51.220;7.250;2022-08-01T08:09:15;98514.47;;;20.91;100.00
54417;BME280;40326;51.220;7.250;2022-08-01T08:11:42;98512.19;;;21.44;100.00
54417;BME280;40326;51.220;7.250;2022-08-01T08:14:08;98501.75;;;21.81;100.00
54417;BME280;40326;51.220;7.250;2022-08-01T08:16:34;98505.28;;;21.63;100.00
54417;BME280;40326;51.220;7.250;2022-08-01T08:18:59;98496.13;;;21.86;100.00
54417;BME280;40326;51.220;7.250;2022-08-01T08:21:24;98507.00;;;21.35;100.00
54417;BME280;40326;51.220;7.250;2022-08-01T08:23:50;98507.59;;;21.00;100.00
54417;BME280;40326;51.220;7.250;2022-08-01T08:26:38;98518.44;;;20.95;100.00
54417;BME280;40326;51.220;7.250;2022-08-01T08:29:03;98517.44;;;21.35;100.00
54417;BME280;40326;51.220;7.250;2022-08-01T08:31:28;98504.22;;;21.46;100.00
54417;BME280;40326;51.220;7.250;2022-08-01T08:33:54;98503.31;;;21.28;100.00
54417;BME280;40326;51.220;7.250;2022-08-01T08:36:19;98507.16;;;21.70;100.00
54417;BME280;40326;51.220;7.250;2022-08-01T08:38:44;98501.81;;;21.35;100.00
54417;BME280;40326;51.220;7.250;2022-08-01T08:41:10;98507.16;;;21.70;100.00
54417;BME280;40326;51.220;7.250;2022-08-01T08:43:35;98501.34;;;21.86;100.00
54417;BME280;40326;51.220;7.250;2022-08-01T08:46:01;98517.25;;;21.46;100.00
54417;BME280;40326;51.220;7.250;2022-08-01T08:48:26;98505.09;;;22.47;100.00
54417;BME280;40326;51.220;7.250;2022-08-01T08:50:52;98516.88;;;22.33;100.00
54417;BME280;40326;51.220;7.250;2022-08-01T08:53:18;98527.22;;;21.60;100.00
54417;BME280;40326;51.220;7.250;2022-08-01T08:55:44;98505.75;;;22.13;100.00
54417;BME280;40326;51.220;7.250;2022-08-01T08:58:13;98510.22;;;21.66;100.00
54417;BME280;40326;51.220;7.250;2022-08-01T09:00:40;98509.63;;;22.45;100.00
54417;BME280;40326;51.220;7.250;2022-08-01T09:03:06;98515.00;;;22.43;100.00
54417;BME280;40326;51.220;7.250;2022-08-01T09:05:31;98513.34;;;22.24;100.00
54417;BME280;40326;51.220;7.250;2022-08-01T09:07:56;98491.41;;;24.00;100.00
54417;BME280;40326;51.220;7.250;2022-08-01T09:10:22;98494.38;;;23.63;100.00
54417;BME280;40326;51.220;7.250;2022-08-01T09:15:43;98481.53;;;23.78;100.00
54417;BME280;40326;51.220;7.250;2022-08-01T09:18:33;98488.09;;;23.22;100.00
54417;BME280;40326;51.220;7.250;2022-08-01T09:23:32;98498.47;;;22.52;100.00
54417;BME280;40326;51.220;7.250;2022-08-01T09:25:57;98500.25;;;22.52;100.00
54417;BME280;40326;51.220;7.250;2022-08-01T09:28:28;98515.97;;;22.60;100.00
54417;BME280;40326;51.220;7.250;2022-08-01T09:30:55;98514.88;;;21.90;100.00
54417;BME280;40326;51.220;7.250;2022-08-01T09:33:21;98517.50;;;22.17;100.00
54417;BME280;40326;51.220;7.250;2022-08-01T09:35:55;98531.25;;;21.82;100.00
54417;BME280;40326;51.220;7.250;2022-08-01T09:38:22;98538.66;;;21.87;100.00
54417;BME280;40326;51.220;7.250;2022-08-01T09:43:19;98540.69;;;21.46;100.00
54417;BME280;40326;51.220;7.250;2022-08-01T09:45:44;98537.69;;;21.50;100.00
54417;BME280;40326;51.220;7.250;2022-08-01T09:48:10;98547.53;;;21.47;100.00
54417;BME280;40326;51.220;7.250;2022-08-01T09:50:41;98534.06;;;21.98;100.00
54417;BME280;40326;51.220;7.250;2022-08-01T09:53:07;98519.72;;;22.75;100.00
54417;BME280;40326;51.220;7.250;2022-08-01T09:55:33;98509.53;;;23.34;100.00
54417;BME280;40326;51.220;7.250;2022-08-01T09:57:58;98499.41;;;23.05;100.00
54417;BME280;40326;51.220;7.250;2022-08-01T10:00:26;98499.50;;;23.21;100.00
54417;BME280;40326;51.220;7.250;2022-08-01T10:02:52;98516.72;;;22.34;100.00
54417;BME280;40326;51.220;7.250;2022-08-01T10:05:18;98518.66;;;22.68;100.00
54417;BME280;40326;51.220;7.250;2022-08-01T10:07:56;98510.03;;;22.85;100.00
54417;BME280;40326;51.220;7.250;2022-08-01T10:10:22;98507.63;;;22.74;100.00
54417;BME280;40326;51.220;7.250;2022-08-01T10:12:48;98504.59;;;23.22;100.00
54417;BME280;40326;51.220;7.250;2022-08-01T10:15:17;98518.53;;;22.87;100.00
54417;BME280;40326;51.220;7.250;2022-08-01T10:17:53;98506.88;;;23.26;100.00
54417;BME280;40326;51.220;7.250;2022-08-01T10:20:21;98505.09;;;22.29;100.00
54417;BME280;40326;51.220;7.250;2022-08-01T10:22:49;98507.50;;;22.93;100.00
54417;BME280;40326;51.220;7.250;2022-08-01T10:25:17;98511.97;;;23.01;100.00
54417;BME280;40326;51.220;7.250;2022-08-01T10:27:43;98503.88;;;22.23;100.00
54417;BME280;40326;51.220;7.250;2022-08-01T10:30:12;98508.00;;;22.61;100.00
54417;BME280;40326;51.220;7.250;2022-08-01T10:32:39;98498.72;;;23.55;100.00
54417;BME280;40326;51.220;7.250;2022-08-01T10:35:06;98506.03;;;23.77;100.00
54417;BME280;40326;51.220;7.250;2022-08-01T10:37:33;98493.66;;;24.70;100.00
54417;BME280;40326;51.220;7.250;2022-08-01T10:40:01;98489.25;;;24.46;100.00
54417;BME280;40326;51.220;7.250;2022-08-01T10:42:26;98485.13;;;23.77;100.00
54417;BME280;40326;51.220;7.250;2022-08-01T10:44:53;98487.78;;;24.60;100.00
54417;BME280;40326;51.220;7.250;2022-08-01T10:47:50;98480.34;;;25.37;100.00
54417;BME280;40326;51.220;7.250;2022-08-01T10:50:27;98470.75;;;24.48;100.00
54417;BME280;40326;51.220;7.250;2022-08-01T10:53:07;98469.59;;;24.42;100.00
54417;BME280;40326;51.220;7.250;2022-08-01T10:55:49;98465.34;;;24.33;100.00
54417;BME280;40326;51.220;7.250;2022-08-01T10:58:23;98463.56;;;24.90;100.00
54417;BME280;40326;51.220;7.250;2022-08-01T11:04:03;98456.78;;;24.23;100.00
54417;BME280;40326;51.220;7.250;2022-08-01T11:08:58;98459.41;;;25.37;100.00
54417;BME280;40326;51.220;7.250;2022-08-01T11:11:25;98451.38;;;25.78;100.00
54417;BME280;40326;51.220;7.250;2022-08-01T11:16:39;98446.59;;;25.34;100.00
54417;BME280;40326;51.220;7.250;2022-08-01T11:19:05;98438.25;;;26.31;100.00
54417;BME280;40326;51.220;7.250;2022-08-01T11:27:30;98435.22;;;25.58;100.00
54417;BME280;40326;51.220;7.250;2022-08-01T11:32:33;98439.78;;;25.72;100.00
54417;BME280;40326;51.220;7.250;2022-08-01T11:34:59;98436.94;;;25.82;100.00
54417;BME280;40326;51.220;7.250;2022-08-01T11:37:25;98438.00;;;25.17;100.00
54417;BME280;40326;51.220;7.250;2022-08-01T11:40:27;98436.47;;;25.31;100.00
54417;BME280;40326;51.220;7.250;2022-08-01T11:45:54;98434.75;;;25.54;100.00
54417;BME280;40326;51.220;7.250;2022-08-01T11:48:25;98430.97;;;25.09;100.00
54417;BME280;40326;51.220;7.250;2022-08-01T11:50:52;98432.38;;;25.36;100.00
54417;BME280;40326;51.220;7.250;2022-08-01T11:53:19;98427.09;;;24.73;100.00
54417;BME280;40326;51.220;7.250;2022-08-01T11:55:52;98420.84;;;25.54;100.00
54417;BME280;40326;51.220;7.250;2022-08-01T11:58:23;98423.34;;;26.55;100.00
54417;BME280;40326;51.220;7.250;2022-08-01T12:00:53;98420.00;;;25.92;100.00
54417;BME280;40326;51.220;7.250;2022-08-01T12:03:30;98421.16;;;25.03;100.00
54417;BME280;40326;51.220;7.250;2022-08-01T12:05:57;98425.50;;;25.74;100.00
54417;BME280;40326;51.220;7.250;2022-08-01T12:08:27;98425.44;;;24.63;100.00
54417;BME280;40326;51.220;7.250;2022-08-01T12:10:53;98425.75;;;24.52;100.00
54417;BME280;40326;51.220;7.250;2022-08-01T12:13:19;98437.84;;;24.78;100.00
54417;BME280;40326;51.220;7.250;2022-08-01T12:15:45;98438.84;;;24.77;100.00
54417;BME280;40326;51.220;7.250;2022-08-01T12:18:11;98434.78;;;24.58;100.00
54417;BME280;40326;51.220;7.250;2022-08-01T12:20:39;98435.50;;;25.24;100.00
54417;BME280;40326;51.220;7.250;2022-08-01T12:23:07;98431.31;;;25.93;100.00
54417;BME280;40326;51.220;7.250;2022-08-01T12:25:34;98429.53;;;24.82;100.00
54417;BME280;40326;51.220;7.250;2022-08-01T12:28:04;98431.16;;;24.34;100.00
54417;BME280;40326;51.220;7.250;2022-08-01T12:30:32;98424.31;;;24.58;100.00
54417;BME280;40326;51.220;7.250;2022-08-01T12:33:01;98434.63;;;25.39;100.00
54417;BME280;40326;51.220;7.250;2022-08-01T12:35:28;98429.19;;;25.49;100.00
54417;BME280;40326;51.220;7.250;2022-08-01T12:37:56;98434.88;;;24.97;100.00
54417;BME280;40326;51.220;7.250;2022-08-01T12:40:23;98430.38;;;26.31;100.00
54417;BME280;40326;51.220;7.250;2022-08-01T12:42:51;98423.88;;;26.27;100.00
54417;BME280;40326;51.220;7.250;2022-08-01T12:45:19;98423.34;;;26.09;100.00
54417;BME280;40326;51.220;7.250;2022-08-01T12:47:45;98423.69;;;26.06;100.00
54417;BME280;40326;51.220;7.250;2022-08-01T12:50:17;98425.09;;;24.75;100.00
54417;BME280;40326;51.220;7.250;2022-08-01T12:52:43;98433.31;;;24.39;100.00
54417;BME280;40326;51.220;7.250;2022-08-01T12:57:41;98440.41;;;24.04;100.00
54417;BME280;40326;51.220;7.250;2022-08-01T13:00:12;98438.00;;;25.17;100.00
54417;BME280;40326;51.220;7.250;2022-08-01T13:02:39;98439.22;;;25.45;100.00
54417;BME280;40326;51.220;7.250;2022-08-01T13:05:06;98435.41;;;24.76;100.00
54417;BME280;40326;51.220;7.250;2022-08-01T13:07:49;98426.69;;;25.72;100.00
54417;BME280;40326;51.220;7.250;2022-08-01T13:10:28;98441.34;;;25.42;100.00
54417;BME280;40326;51.220;7.250;2022-08-01T13:12:56;98436.03;;;25.58;100.00
54417;BME280;40326;51.220;7.250;2022-08-01T13:15:28;98440.47;;;24.94;100.00
54417;BME280;40326;51.220;7.250;2022-08-01T13:17:56;98446.47;;;25.35;100.00
54417;BME280;40326;51.220;7.250;2022-08-01T13:20:26;98448.03;;;24.65;100.00
54417;BME280;40326;51.220;7.250;2022-08-01T13:22:52;98450.75;;;25.28;100.00
54417;BME280;40326;51.220;7.250;2022-08-01T13:25:18;98442.94;;;25.04;100.00
54417;BME280;40326;51.220;7.250;2022-08-01T13:27:43;98433.28;;;25.04;100.00
54417;BME280;40326;51.220;7.250;2022-08-01T13:30:17;98440.22;;;25.44;100.00
54417;BME280;40326;51.220;7.250;2022-08-01T13:32:44;98430.84;;;26.43;100.00